createdAt,value
2019-04-11T03:01:43.907Z,67.20
2019-04-11T03:04:14.840Z,67.50
2019-04-11T03:06:45.673Z,67.90
2019-04-11T03:09:15.490Z,67.50
2019-04-11T03:11:47.221Z,67.30
2019-04-11T03:14:19.058Z,67.60
2019-04-11T03:16:57.568Z,67.20
2019-04-11T03:19:36.403Z,67.00
2019-04-11T03:21:52.427Z,67.40
2019-04-11T03:24:24.333Z,67.80
2019-04-11T03:26:54.967Z,67.00
2019-04-11T03:29:26.704Z,67.50
2019-04-11T03:32:37.084Z,67.80
2019-04-11T03:37:24.280Z,67.70
2019-04-11T03:39:53.176Z,67.70
2019-04-11T03:42:18.680Z,68.20
2019-04-11T03:44:40.212Z,68.60
2019-04-11T03:47:16.574Z,68.70
2019-04-11T03:49:44.963Z,69.60
2019-04-11T03:52:10.106Z,69.80
2019-04-11T03:54:41.004Z,70.10
2019-04-11T03:57:10.383Z,70.80
2019-04-11T03:59:40.749Z,71.10
2019-04-11T04:02:12.560Z,71.60
2019-04-11T04:04:43.426Z,71.60
2019-04-11T04:07:14.929Z,71.00
2019-04-11T04:09:45.944Z,70.70
2019-04-11T04:12:16.223Z,70.30
2019-04-11T04:14:51.563Z,70.30
2019-04-11T04:17:39.289Z,70.00
2019-04-11T04:20:26.911Z,70.00
2019-04-11T04:23:01.047Z,70.90
2019-04-11T04:25:32.491Z,71.50
2019-04-11T04:28:03.069Z,71.50
2019-04-11T04:30:33.645Z,71.50
2019-04-11T04:33:04.347Z,71.00
2019-04-11T04:35:36.179Z,69.70
2019-04-11T04:38:07.308Z,69.30
2019-04-11T04:40:52.038Z,69.20
2019-04-11T04:43:10.367Z,68.70
2019-04-11T04:45:58.190Z,69.30
2019-04-11T04:48:15.538Z,69.80
2019-04-11T04:50:42.553Z,71.10
2019-04-11T04:53:13.588Z,71.20
2019-04-11T04:55:45.555Z,71.30
2019-04-11T04:58:15.792Z,71.50
2019-04-11T05:00:45.680Z,71.50
2019-04-11T05:03:15.901Z,70.60
2019-04-11T05:05:46.547Z,69.30
2019-04-11T05:08:16.566Z,69.20
2019-04-11T05:10:47.106Z,68.80
2019-04-11T05:13:17.189Z,68.40
2019-04-11T05:15:46.643Z,68.20
2019-04-11T05:18:18.013Z,68.10
2019-04-11T05:20:46.891Z,68.10
2019-04-11T05:23:16.974Z,68.10
2019-04-11T05:25:46.590Z,68.20
2019-04-11T05:28:16.124Z,67.60
2019-04-11T05:30:45.427Z,67.50
2019-04-11T05:33:14.987Z,67.50
2019-04-11T05:35:44.258Z,67.30
2019-04-11T05:38:14.683Z,66.90
2019-04-11T05:40:44.426Z,66.20
2019-04-11T05:43:13.933Z,66.20
2019-04-11T05:45:43.202Z,65.80
2019-04-11T05:48:31.959Z,65.30
2019-04-11T05:51:01.404Z,65.40
2019-04-11T05:53:33.018Z,64.90
2019-04-11T05:56:07.079Z,64.70
2019-04-11T05:58:42.138Z,64.70
2019-04-11T06:01:18.005Z,64.70
2019-04-11T06:03:49.228Z,64.90
2019-04-11T06:06:36.784Z,65.10
2019-04-11T06:09:10.442Z,64.90
2019-04-11T06:11:55.030Z,64.50
2019-04-11T06:14:28.019Z,63.90
2019-04-11T06:16:59.211Z,63.90
2019-04-11T06:19:46.322Z,63.50
2019-04-11T06:22:15.592Z,63.20
2019-04-11T06:25:04.100Z,62.90
2019-04-11T06:27:40.710Z,62.50
2019-04-11T06:30:13.823Z,62.90
2019-04-11T06:32:45.755Z,62.30
2019-04-11T06:35:16.879Z,62.70
2019-04-11T06:38:00.730Z,61.80
2019-04-11T06:40:37.722Z,60.00
2019-04-11T06:43:25.749Z,59.50
2019-04-11T06:46:00.722Z,59.80
2019-04-11T06:48:48.310Z,59.90
2019-04-11T06:51:30.942Z,59.70
2019-04-11T06:54:18.968Z,59.70
2019-04-11T06:56:51.039Z,59.90
2019-04-11T06:59:23.921Z,59.40
2019-04-11T07:01:55.042Z,59.40
2019-04-11T07:04:27.277Z,59.50
2019-04-11T07:06:58.393Z,59.60
2019-04-11T07:09:29.294Z,58.50
2019-04-11T07:12:01.299Z,58.40
2019-04-11T07:14:47.565Z,59.40
2019-04-11T07:17:36.905Z,58.70
2019-04-11T07:20:14.295Z,57.10
2019-04-11T07:23:01.588Z,56.50
2019-04-11T07:25:47.727Z,57.30
2019-04-11T07:28:35.692Z,56.60
2019-04-11T07:31:10.532Z,55.40
2019-04-11T07:33:54.519Z,53.60
2019-04-11T07:36:41.710Z,53.20
2019-04-11T07:39:12.970Z,52.50
2019-04-11T07:41:45.689Z,52.00
2019-04-11T07:44:22.217Z,51.60
2019-04-11T07:46:53.693Z,50.00
2019-04-11T07:49:24.633Z,49.50
2019-04-11T07:51:55.593Z,49.30
2019-04-11T07:54:25.935Z,49.30
2019-04-11T07:56:58.388Z,48.90
2019-04-11T07:59:29.725Z,47.80
2019-04-11T08:02:04.313Z,47.30
2019-04-11T08:04:41.208Z,46.70
2019-04-11T08:07:28.271Z,45.80
2019-04-11T08:10:05.897Z,45.60
2019-04-11T08:12:35.687Z,45.80
2019-04-11T08:15:24.391Z,46.70
2019-04-11T08:17:54.319Z,44.90
2019-04-11T08:20:41.567Z,44.70
2019-04-11T08:23:11.696Z,43.80
2019-04-11T08:25:42.627Z,43.80
2019-04-11T08:28:13.869Z,43.50
2019-04-11T08:30:44.665Z,43.50
2019-04-11T08:33:16.673Z,43.60
2019-04-11T08:35:55.186Z,44.10
2019-04-11T08:38:26.691Z,42.20
2019-04-11T08:41:14.218Z,41.20
2019-04-11T08:43:43.472Z,40.80
2019-04-11T08:46:18.355Z,41.40
2019-04-11T08:48:49.494Z,41.60
2019-04-11T08:51:20.410Z,39.70
2019-04-11T08:54:07.060Z,41.10
2019-04-11T08:56:39.057Z,40.90
2019-04-11T08:59:13.442Z,40.80
2019-04-11T09:01:42.794Z,39.90
2019-04-11T09:04:23.888Z,39.80
2019-04-11T09:06:54.755Z,39.90
2019-04-11T09:09:33.515Z,39.90
2019-04-11T09:12:04.827Z,40.00
2019-04-11T09:14:52.633Z,39.60
2019-04-11T09:17:23.915Z,38.90
2019-04-11T09:19:55.116Z,39.00
2019-04-11T09:22:29.136Z,39.10
2019-04-11T09:25:00.993Z,38.10
2019-04-11T09:27:48.997Z,39.10
2019-04-11T09:30:32.701Z,39.60
2019-04-11T09:33:06.895Z,40.00
2019-04-11T09:35:37.811Z,39.00
2019-04-11T09:38:08.718Z,39.00
2019-04-11T09:40:57.131Z,38.10
2019-04-11T09:43:31.880Z,37.90
2019-04-11T09:46:15.042Z,39.50
2019-04-11T09:48:46.318Z,39.50
2019-04-11T09:51:23.478Z,39.00
2019-04-11T09:54:03.599Z,39.20
2019-04-11T09:56:51.772Z,39.20
2019-04-11T09:59:23.023Z,37.90
2019-04-11T10:02:10.428Z,38.90
2019-04-11T10:04:41.705Z,38.60
2019-04-11T10:07:13.122Z,37.70
2019-04-11T10:09:54.174Z,38.00
2019-04-11T10:12:40.947Z,37.30
2019-04-11T10:15:11.542Z,37.20
2019-04-11T10:17:59.061Z,37.60
2019-04-11T10:20:28.798Z,38.30
2019-04-11T10:23:01.477Z,39.30
2019-04-11T10:25:32.379Z,37.50
2019-04-11T10:28:05.978Z,37.30
2019-04-11T10:30:53.735Z,37.50
2019-04-11T10:33:30.972Z,37.80
2019-04-11T10:36:03.050Z,37.60
2019-04-11T10:38:33.769Z,36.80
2019-04-11T10:41:20.889Z,35.50
2019-04-11T10:43:50.174Z,35.70
2019-04-11T10:46:25.094Z,37.00
2019-04-11T10:49:03.319Z,37.60
2019-04-11T10:51:40.836Z,35.60
2019-04-11T10:54:13.537Z,34.00
2019-04-11T10:57:03.473Z,37.30
2019-04-11T10:59:34.801Z,36.00
2019-04-11T11:02:06.651Z,34.80
2019-04-11T11:04:38.778Z,35.00
2019-04-11T11:07:11.367Z,34.20
2019-04-11T11:09:48.704Z,33.80
2019-04-11T11:12:37.694Z,34.90
2019-04-11T11:15:12.078Z,35.30
2019-04-11T11:18:12.644Z,34.60
2019-04-11T11:20:38.544Z,33.90
2019-04-11T11:23:20.794Z,33.90
2019-04-11T11:25:54.646Z,35.00
2019-04-11T11:28:25.943Z,32.70
2019-04-11T11:31:08.888Z,32.10
2019-04-11T11:33:38.740Z,32.50
2019-04-11T11:36:13.095Z,32.80
2019-04-11T11:38:44.058Z,31.30
2019-04-11T11:43:59.278Z,31.30
2019-04-11T11:46:42.664Z,31.10
2019-04-11T11:49:12.491Z,30.40
2019-04-11T11:52:00.457Z,32.10
2019-04-11T11:54:32.578Z,30.80
2019-04-11T11:57:04.494Z,31.50
2019-04-11T11:59:36.465Z,31.60
2019-04-11T12:02:08.485Z,31.40
2019-04-11T12:04:40.512Z,29.80
2019-04-11T12:07:12.742Z,30.90
2019-04-11T12:10:00.699Z,31.60
2019-04-11T12:12:35.616Z,31.00
2019-04-11T12:15:22.528Z,30.60
2019-04-11T12:18:11.214Z,31.10
2019-04-11T12:21:01.277Z,30.80
2019-04-11T12:23:46.548Z,31.50
2019-04-11T12:26:10.962Z,30.00
2019-04-11T12:28:54.203Z,31.00
2019-04-11T12:31:26.001Z,30.40
2019-04-11T12:34:14.450Z,31.10
2019-04-11T12:36:50.424Z,30.60
2019-04-11T12:39:28.857Z,30.40
2019-04-11T12:41:59.872Z,30.80
2019-04-11T12:44:30.782Z,31.10
2019-04-11T12:47:01.690Z,31.00
2019-04-11T12:49:52.721Z,31.20
2019-04-11T12:52:31.858Z,30.60
2019-04-11T12:55:03.106Z,30.70
2019-04-11T12:57:52.074Z,30.20
2019-04-11T13:00:39.275Z,30.30
2019-04-11T13:03:10.180Z,30.00
2019-04-11T13:05:49.606Z,30.00
2019-04-11T13:08:35.923Z,30.60
2019-04-11T13:11:05.455Z,29.60
2019-04-11T13:13:39.263Z,29.70
2019-04-11T13:16:12.369Z,29.00
2019-04-11T13:18:42.766Z,28.60
2019-04-11T13:21:13.938Z,29.20
2019-04-11T13:23:56.842Z,29.30
2019-04-11T13:26:43.960Z,28.60
2019-04-11T13:29:29.916Z,29.30
2019-04-11T13:32:06.770Z,29.50
2019-04-11T13:34:37.703Z,29.30
2019-04-11T13:37:25.327Z,27.80
2019-04-11T13:39:56.321Z,28.30
2019-04-11T13:42:27.410Z,27.50
2019-04-11T13:44:56.684Z,26.90
2019-04-11T13:47:45.802Z,27.20
2019-04-11T13:50:17.061Z,27.40
2019-04-11T13:52:50.994Z,27.40
2019-04-11T13:55:20.902Z,27.80
2019-04-11T13:58:03.847Z,27.00
2019-04-11T14:00:40.558Z,26.70
2019-04-11T14:03:11.478Z,27.00
2019-04-11T14:05:45.079Z,27.30
2019-04-11T14:08:17.894Z,27.10
2019-04-11T14:11:06.431Z,26.40
2019-04-11T14:13:40.362Z,26.30
2019-04-11T14:19:07.201Z,26.20
2019-04-11T14:21:36.602Z,25.70
2019-04-11T14:24:11.679Z,25.70
2019-04-11T14:26:48.871Z,25.50
2019-04-11T14:29:22.695Z,25.10
2019-04-11T14:31:54.517Z,25.20
2019-04-11T14:34:29.390Z,24.90
2019-04-11T14:37:03.532Z,24.50
2019-04-11T14:39:34.439Z,24.60
2019-04-11T14:42:20.844Z,24.40
2019-04-11T14:44:51.866Z,24.30
2019-04-11T14:47:39.326Z,24.00
2019-04-11T14:50:11.161Z,23.90
2019-04-11T14:52:46.712Z,24.30
2019-04-11T14:55:19.075Z,23.90
2019-04-11T14:57:53.582Z,24.90
2019-04-11T15:00:26.205Z,24.30
2019-04-11T15:03:03.022Z,24.00
2019-04-11T15:05:49.208Z,23.60
2019-04-11T15:08:22.557Z,24.30
2019-04-11T15:11:11.838Z,24.30
2019-04-11T15:13:42.779Z,24.80
2019-04-11T15:16:30.090Z,25.30
2019-04-11T15:19:00.434Z,25.10
2019-04-11T15:21:37.635Z,26.10
2019-04-11T15:24:08.078Z,25.00
2019-04-11T15:26:55.619Z,25.90
2019-04-11T15:29:26.523Z,26.60
2019-04-11T15:32:02.105Z,26.70
2019-04-11T15:34:40.320Z,27.00
2019-04-11T15:37:28.243Z,26.90
2019-04-11T15:39:59.546Z,27.30
2019-04-11T15:42:45.227Z,27.20
2019-04-11T15:45:18.847Z,26.30
2019-04-11T15:47:52.493Z,26.90
2019-04-11T15:50:39.653Z,27.00
2019-04-11T15:53:08.910Z,27.00
2019-04-11T15:55:45.984Z,27.10
2019-04-11T15:58:15.512Z,27.80
2019-04-11T16:00:55.174Z,27.10
2019-04-11T16:03:24.768Z,27.90
2019-04-11T16:05:55.828Z,27.90
2019-04-11T16:08:32.708Z,28.20
2019-04-11T16:11:12.150Z,28.50
2019-04-11T16:13:42.191Z,29.10
2019-04-11T16:16:12.123Z,30.20
2019-04-11T16:18:47.265Z,29.10
2019-04-11T16:21:21.182Z,29.40
2019-04-11T16:24:07.418Z,30.10
2019-04-11T16:26:41.323Z,30.80
2019-04-11T16:29:24.283Z,30.80
2019-04-11T16:31:56.162Z,31.60
2019-04-11T16:34:30.100Z,31.70
2019-04-11T16:36:59.533Z,32.00
2019-04-11T16:39:41.131Z,32.20
2019-04-11T16:42:10.325Z,32.80
2019-04-11T16:44:54.822Z,33.10
2019-04-11T16:47:23.700Z,33.20
2019-04-11T16:49:57.031Z,33.10
2019-04-11T16:52:26.256Z,34.00
2019-04-11T16:54:55.868Z,33.90
2019-04-11T16:57:25.373Z,34.40
2019-04-11T16:59:54.632Z,34.30
2019-04-11T17:02:24.354Z,34.60
2019-04-11T17:04:55.811Z,34.80
2019-04-11T17:07:33.038Z,34.80
2019-04-11T17:10:03.375Z,35.70
2019-04-11T17:12:32.740Z,35.10
2019-04-11T17:15:02.258Z,35.40
2019-04-11T17:17:32.899Z,35.80
2019-04-11T17:20:05.786Z,35.90
2019-04-11T17:22:34.574Z,36.00
2019-04-11T17:25:04.321Z,36.20
2019-04-11T17:27:33.654Z,36.40
2019-04-11T17:30:03.386Z,36.60
2019-04-11T17:32:32.654Z,36.70
2019-04-11T17:35:02.528Z,36.90
2019-04-11T17:37:33.791Z,37.00
2019-04-11T17:40:07.078Z,37.20
2019-04-11T17:42:37.038Z,37.40
2019-04-11T17:45:06.994Z,37.20
2019-04-11T17:47:36.273Z,37.30
2019-04-11T17:50:07.461Z,37.20
2019-04-11T17:52:37.247Z,37.10
2019-04-11T17:55:07.367Z,37.20
2019-04-11T17:57:36.729Z,37.30
2019-04-11T18:00:09.499Z,37.60
2019-04-11T18:02:41.510Z,37.90
2019-04-11T18:05:10.438Z,37.90
2019-04-11T18:07:41.429Z,38.20
2019-04-11T18:10:11.145Z,38.30
2019-04-11T18:12:40.402Z,38.90
2019-04-11T18:15:10.010Z,38.80
2019-04-11T18:17:39.266Z,39.00
2019-04-11T18:20:09.899Z,39.20
2019-04-11T18:22:39.166Z,39.50
2019-04-11T18:25:08.428Z,39.70
2019-04-11T18:27:37.765Z,40.20
2019-04-11T18:30:12.235Z,40.60
2019-04-11T18:32:41.567Z,41.30
2019-04-11T18:35:11.351Z,41.50
2019-04-11T18:37:40.854Z,41.70
2019-04-11T18:40:11.248Z,41.90
2019-04-11T18:42:40.511Z,41.90
2019-04-11T18:45:10.130Z,42.10
2019-04-11T18:47:39.450Z,42.50
2019-04-11T18:50:09.349Z,42.80
2019-04-11T18:52:38.639Z,43.20
2019-04-11T18:55:08.130Z,43.30
2019-04-11T18:57:37.422Z,43.50
2019-04-11T19:00:10.811Z,43.60
2019-04-11T19:02:40.789Z,44.00
2019-04-11T19:05:10.838Z,43.90
2019-04-11T19:07:43.092Z,44.10
2019-04-11T19:10:14.994Z,45.00
2019-04-11T19:12:46.206Z,44.70
2019-04-11T19:15:16.715Z,44.10
2019-04-11T19:17:47.140Z,44.30
2019-04-11T19:20:18.804Z,44.50
2019-04-11T19:22:47.638Z,44.50
2019-04-11T19:25:16.915Z,44.70
2019-04-11T19:27:50.078Z,44.90
2019-04-11T19:30:17.144Z,44.70
2019-04-11T19:32:46.478Z,44.50
2019-04-11T19:35:15.794Z,45.00
2019-04-11T19:37:46.143Z,45.00
2019-04-11T19:40:16.502Z,45.10
2019-04-11T19:42:49.194Z,45.30
2019-04-11T19:45:19.567Z,45.20
2019-04-11T19:47:52.067Z,45.30
2019-04-11T19:50:21.743Z,45.40
2019-04-11T19:52:51.180Z,46.20
2019-04-11T19:55:28.231Z,45.30
2019-04-11T19:57:57.504Z,45.40
2019-04-11T20:00:27.326Z,45.90
2019-04-11T20:02:56.592Z,45.70
2019-04-11T20:05:25.850Z,45.70
2019-04-11T20:07:55.174Z,45.90
2019-04-11T20:10:24.431Z,46.10
2019-04-11T20:12:55.079Z,46.10
2019-04-11T20:15:24.345Z,46.20
2019-04-11T20:17:53.603Z,46.60
2019-04-11T20:20:22.854Z,46.70
2019-04-11T20:22:58.993Z,46.60
2019-04-11T20:25:23.083Z,46.60
2019-04-11T20:27:52.338Z,46.80
2019-04-11T20:30:22.896Z,47.10
2019-04-11T20:32:52.874Z,47.20
2019-04-11T20:35:28.741Z,47.20
2019-04-11T20:37:54.311Z,47.30
2019-04-11T20:40:23.778Z,47.60
2019-04-11T20:42:54.450Z,47.60
2019-04-11T20:45:28.474Z,47.60
2019-04-11T20:47:59.790Z,47.80
2019-04-11T20:50:27.882Z,47.80
2019-04-11T20:52:59.357Z,47.80
2019-04-11T20:55:28.107Z,47.80
2019-04-11T20:57:57.774Z,48.10
2019-04-11T21:00:27.275Z,48.50
2019-04-11T21:02:58.393Z,48.10
2019-04-11T21:05:30.788Z,48.10
2019-04-11T21:08:02.567Z,48.60
2019-04-11T21:10:29.434Z,48.60
2019-04-11T21:12:58.710Z,48.30
2019-04-11T21:15:28.011Z,48.50
2019-04-11T21:17:57.672Z,48.50
2019-04-11T21:20:26.935Z,48.50
2019-04-11T21:22:56.203Z,48.60
2019-04-11T21:25:26.057Z,48.90
2019-04-11T21:27:59.087Z,49.10
2019-04-11T21:30:30.119Z,49.10
2019-04-11T21:33:01.121Z,49.10
2019-04-11T21:35:31.003Z,49.10
2019-04-11T21:38:00.982Z,49.40
2019-04-11T21:40:30.259Z,49.20
2019-04-11T21:42:59.526Z,49.50
2019-04-11T21:45:29.039Z,49.50
2019-04-11T21:47:58.822Z,49.40
2019-04-11T21:50:28.090Z,49.60
2019-04-11T21:52:57.351Z,49.50
2019-04-11T21:55:26.610Z,49.60
2019-04-11T21:57:55.870Z,49.60
2019-04-11T22:00:32.790Z,49.50
2019-04-11T22:03:06.562Z,49.60
2019-04-11T22:05:35.006Z,50.30
2019-04-11T22:08:05.659Z,49.60
2019-04-11T22:10:35.255Z,49.70
2019-04-11T22:13:04.502Z,49.80
2019-04-11T22:15:33.839Z,50.00
2019-04-11T22:18:04.302Z,50.00
2019-04-11T22:20:33.565Z,50.30
2019-04-11T22:23:02.890Z,50.30
2019-04-11T22:25:32.218Z,50.00
2019-04-11T22:28:01.481Z,49.90
2019-04-11T22:30:31.727Z,50.30
2019-04-11T22:33:03.695Z,50.20
2019-04-11T22:35:33.196Z,50.40
2019-04-11T22:38:02.455Z,50.40
2019-04-11T22:40:32.396Z,50.50
2019-04-11T22:43:01.786Z,50.50
2019-04-11T22:45:31.094Z,50.60
2019-04-11T22:48:00.384Z,50.70
2019-04-11T22:50:29.970Z,51.00
2019-04-11T22:52:59.534Z,51.50
2019-04-11T22:55:29.050Z,51.50
2019-04-11T22:57:58.316Z,51.80
2019-04-11T23:00:27.855Z,51.90
2019-04-11T23:03:01.446Z,52.30
2019-04-11T23:05:30.710Z,52.30
2019-04-11T23:07:59.969Z,52.40
2019-04-11T23:10:29.567Z,52.90
2019-04-11T23:12:58.828Z,53.10
2019-04-11T23:15:28.106Z,53.10
2019-04-11T23:17:57.346Z,53.50
2019-04-11T23:20:26.615Z,53.30
2019-04-11T23:22:55.874Z,53.40
2019-04-11T23:25:25.379Z,53.40
2019-04-11T23:27:54.807Z,53.30
2019-04-11T23:30:24.063Z,53.60
2019-04-11T23:32:53.329Z,53.70
2019-04-11T23:35:22.828Z,53.80
2019-04-11T23:37:53.158Z,54.00
2019-04-11T23:40:22.436Z,54.10
2019-04-11T23:42:51.867Z,54.20
2019-04-11T23:45:22.764Z,54.00
2019-04-11T23:47:54.157Z,54.00
2019-04-11T23:50:25.359Z,54.10
2019-04-11T23:52:57.841Z,54.00
2019-04-11T23:55:29.856Z,54.20
2019-04-11T23:58:01.137Z,54.30
